sensor_id;sensor_type;location;lat;lon;timestamp;P1;durP1;ratioP1;P2;durP2;ratioP2
17794;SDS011;9021;50.882;4.326;2023-01-28T00:01:39;10.57;;;9.52;;
17794;SDS011;9021;50.882;4.326;2023-01-28T00:04:05;11.35;;;10.25;;
17794;SDS011;9021;50.882;4.326;2023-01-28T00:06:30;11.07;;;10.07;;
17794;SDS011;9021;50.882;4.326;2023-01-28T00:08:56;10.90;;;9.88;;
17794;SDS011;9021;50.882;4.326;2023-01-28T00:11:21;11.07;;;9.90;;
17794;SDS011;9021;50.882;4.326;2023-01-28T00:13:51;12.15;;;10.75;;
17794;SDS011;9021;50.882;4.326;2023-01-28T00:16:17;11.07;;;9.98;;
17794;SDS011;9021;50.882;4.326;2023-01-28T00:18:42;10.63;;;9.63;;
17794;SDS011;9021;50.882;4.326;2023-01-28T00:21:09;11.00;;;9.90;;
17794;SDS011;9021;50.882;4.326;2023-01-28T00:23:37;11.00;;;9.93;;
17794;SDS011;9021;50.882;4.326;2023-01-28T00:26:09;12.60;;;10.23;;
17794;SDS011;9021;50.882;4.326;2023-01-28T00:28:38;11.20;;;10.13;;
17794;SDS011;9021;50.882;4.326;2023-01-28T00:33:35;11.27;;;10.07;;
17794;SDS011;9021;50.882;4.326;2023-01-28T00:36:01;11.45;;;10.32;;
17794;SDS011;9021;50.882;4.326;2023-01-28T00:38:30;11.20;;;10.10;;
17794;SDS011;9021;50.882;4.326;2023-01-28T00:41:11;10.65;;;9.65;;
17794;SDS011;9021;50.882;4.326;2023-01-28T00:43:39;10.57;;;9.57;;
17794;SDS011;9021;50.882;4.326;2023-01-28T00:48:35;9.82;;;8.88;;
17794;SDS011;9021;50.882;4.326;2023-01-28T00:51:02;10.20;;;9.20;;
17794;SDS011;9021;50.882;4.326;2023-01-28T00:55:54;9.30;;;8.40;;
17794;SDS011;9021;50.882;4.326;2023-01-28T00:58:20;9.80;;;8.90;;
17794;SDS011;9021;50.882;4.326;2023-01-28T01:00:48;11.00;;;9.05;;
17794;SDS011;9021;50.882;4.326;2023-01-28T01:03:15;9.30;;;8.23;;
17794;SDS011;9021;50.882;4.326;2023-01-28T01:05:41;10.07;;;9.07;;
17794;SDS011;9021;50.882;4.326;2023-01-28T01:08:07;9.32;;;8.48;;
17794;SDS011;9021;50.882;4.326;2023-01-28T01:10:33;9.80;;;8.90;;
17794;SDS011;9021;50.882;4.326;2023-01-28T01:12:59;9.65;;;8.75;;
17794;SDS011;9021;50.882;4.326;2023-01-28T01:15:25;11.20;;;10.10;;
17794;SDS011;9021;50.882;4.326;2023-01-28T01:17:50;11.40;;;10.30;;
17794;SDS011;9021;50.882;4.326;2023-01-28T01:22:44;11.88;;;10.77;;
17794;SDS011;9021;50.882;4.326;2023-01-28T01:25:10;11.93;;;10.73;;
17794;SDS011;9021;50.882;4.326;2023-01-28T01:27:38;11.82;;;10.63;;
17794;SDS011;9021;50.882;4.326;2023-01-28T01:30:04;12.27;;;11.05;;
17794;SDS011;9021;50.882;4.326;2023-01-28T01:32:32;12.43;;;11.13;;
17794;SDS011;9021;50.882;4.326;2023-01-28T01:35:02;11.98;;;9.95;;
17794;SDS011;9021;50.882;4.326;2023-01-28T01:37:32;11.43;;;10.32;;
17794;SDS011;9021;50.882;4.326;2023-01-28T01:39:58;12.48;;;11.20;;
17794;SDS011;9021;50.882;4.326;2023-01-28T01:42:26;12.63;;;11.32;;
17794;SDS011;9021;50.882;4.326;2023-01-28T01:50:31;12.13;;;10.93;;
17794;SDS011;9021;50.882;4.326;2023-01-28T01:53:07;11.75;;;10.52;;
17794;SDS011;9021;50.882;4.326;2023-01-28T01:55:36;11.68;;;10.48;;
17794;SDS011;9021;50.882;4.326;2023-01-28T01:58:09;13.13;;;11.82;;
17794;SDS011;9021;50.882;4.326;2023-01-28T02:00:38;11.65;;;10.45;;
17794;SDS011;9021;50.882;4.326;2023-01-28T02:03:05;11.82;;;10.73;;
17794;SDS011;9021;50.882;4.326;2023-01-28T02:05:32;13.68;;;11.18;;
17794;SDS011;9021;50.882;4.326;2023-01-28T02:07:58;12.77;;;11.57;;
17794;SDS011;9021;50.882;4.326;2023-01-28T02:10:44;12.65;;;11.35;;
17794;SDS011;9021;50.882;4.326;2023-01-28T02:13:19;12.27;;;11.07;;
17794;SDS011;9021;50.882;4.326;2023-01-28T02:15:49;12.15;;;10.82;;
17794;SDS011;9021;50.882;4.326;2023-01-28T02:18:15;12.05;;;10.85;;
17794;SDS011;9021;50.882;4.326;2023-01-28T02:21:02;12.43;;;11.23;;
17794;SDS011;9021;50.882;4.326;2023-01-28T02:32:14;13.40;;;12.10;;
17794;SDS011;9021;50.882;4.326;2023-01-28T02:37:37;12.60;;;11.30;;
17794;SDS011;9021;50.882;4.326;2023-01-28T02:40:09;13.10;;;11.73;;
17794;SDS011;9021;50.882;4.326;2023-01-28T02:42:38;12.68;;;11.43;;
17794;SDS011;9021;50.882;4.326;2023-01-28T02:45:16;12.85;;;11.52;;
17794;SDS011;9021;50.882;4.326;2023-01-28T02:47:47;12.32;;;11.02;;
17794;SDS011;9021;50.882;4.326;2023-01-28T02:50:22;13.00;;;11.70;;
17794;SDS011;9021;50.882;4.326;2023-01-28T02:53:02;13.52;;;12.13;;
17794;SDS011;9021;50.882;4.326;2023-01-28T02:56:00;13.15;;;11.80;;
17794;SDS011;9021;50.882;4.326;2023-01-28T02:58:37;13.45;;;11.55;;
17794;SDS011;9021;50.882;4.326;2023-01-28T03:06:24;12.90;;;11.57;;
17794;SDS011;9021;50.882;4.326;2023-01-28T03:09:01;13.35;;;11.95;;
17794;SDS011;9021;50.882;4.326;2023-01-28T03:11:49;13.13;;;11.82;;
17794;SDS011;9021;50.882;4.326;2023-01-28T03:14:50;13.63;;;12.23;;
17794;SDS011;9021;50.882;4.326;2023-01-28T03:17:40;14.15;;;11.73;;
17794;SDS011;9021;50.882;4.326;2023-01-28T03:20:33;14.20;;;12.10;;
17794;SDS011;9021;50.882;4.326;2023-01-28T03:23:27;13.35;;;11.95;;
17794;SDS011;9021;50.882;4.326;2023-01-28T03:26:20;14.27;;;12.77;;
17794;SDS011;9021;50.882;4.326;2023-01-28T03:29:07;14.68;;;13.18;;
17794;SDS011;9021;50.882;4.326;2023-01-28T03:31:55;14.93;;;13.32;;
17794;SDS011;9021;50.882;4.326;2023-01-28T03:34:40;15.00;;;13.40;;
17794;SDS011;9021;50.882;4.326;2023-01-28T03:37:25;14.90;;;13.30;;
17794;SDS011;9021;50.882;4.326;2023-01-28T03:39:52;14.27;;;12.77;;
17794;SDS011;9021;50.882;4.326;2023-01-28T03:42:21;14.48;;;12.98;;
17794;SDS011;9021;50.882;4.326;2023-01-28T03:44:47;15.07;;;13.48;;
17794;SDS011;9021;50.882;4.326;2023-01-28T03:47:14;14.55;;;13.00;;
17794;SDS011;9021;50.882;4.326;2023-01-28T03:52:07;15.05;;;12.77;;
17794;SDS011;9021;50.882;4.326;2023-01-28T03:54:33;14.82;;;13.27;;
17794;SDS011;9021;50.882;4.326;2023-01-28T03:56:58;14.65;;;13.15;;
17794;SDS011;9021;50.882;4.326;2023-01-28T03:59:24;14.60;;;12.98;;
17794;SDS011;9021;50.882;4.326;2023-01-28T04:01:49;13.88;;;12.48;;
17794;SDS011;9021;50.882;4.326;2023-01-28T04:04:15;15.45;;;13.85;;
17794;SDS011;9021;50.882;4.326;2023-01-28T04:06:51;13.80;;;12.40;;
17794;SDS011;9021;50.882;4.326;2023-01-28T04:09:21;13.73;;;12.32;;
17794;SDS011;9021;50.882;4.326;2023-01-28T04:11:47;14.40;;;12.90;;
17794;SDS011;9021;50.882;4.326;2023-01-28T04:14:14;16.70;;;12.13;;
17794;SDS011;9021;50.882;4.326;2023-01-28T04:16:41;14.82;;;13.30;;
17794;SDS011;9021;50.882;4.326;2023-01-28T04:19:07;14.55;;;12.95;;
17794;SDS011;9021;50.882;4.326;2023-01-28T04:21:33;14.65;;;12.70;;
17794;SDS011;9021;50.882;4.326;2023-01-28T04:23:59;14.73;;;13.20;;
17794;SDS011;9021;50.882;4.326;2023-01-28T04:26:25;14.07;;;12.57;;
17794;SDS011;9021;50.882;4.326;2023-01-28T04:28:51;15.75;;;12.55;;
17794;SDS011;9021;50.882;4.326;2023-01-28T04:31:17;13.93;;;12.40;;
17794;SDS011;9021;50.882;4.326;2023-01-28T04:33:43;14.50;;;12.90;;
17794;SDS011;9021;50.882;4.326;2023-01-28T04:36:08;14.32;;;12.65;;
17794;SDS011;9021;50.882;4.326;2023-01-28T04:38:34;14.02;;;12.55;;
17794;SDS011;9021;50.882;4.326;2023-01-28T04:41:00;13.10;;;11.63;;
17794;SDS011;9021;50.882;4.326;2023-01-28T04:43:25;14.82;;;13.05;;
17794;SDS011;9021;50.882;4.326;2023-01-28T04:45:51;12.85;;;11.55;;
17794;SDS011;9021;50.882;4.326;2023-01-28T04:48:17;14.18;;;12.10;;
17794;SDS011;9021;50.882;4.326;2023-01-28T04:50:43;12.93;;;11.30;;
17794;SDS011;9021;50.882;4.326;2023-01-28T04:53:09;13.40;;;12.00;;
17794;SDS011;9021;50.882;4.326;2023-01-28T04:55:35;12.32;;;10.68;;
17794;SDS011;9021;50.882;4.326;2023-01-28T04:58:01;12.13;;;10.93;;
17794;SDS011;9021;50.882;4.326;2023-01-28T05:00:27;11.88;;;10.07;;
17794;SDS011;9021;50.882;4.326;2023-01-28T05:02:53;11.30;;;10.20;;
17794;SDS011;9021;50.882;4.326;2023-01-28T05:05:18;11.73;;;10.48;;
17794;SDS011;9021;50.882;4.326;2023-01-28T05:07:49;11.10;;;10.00;;
17794;SDS011;9021;50.882;4.326;2023-01-28T05:10:15;11.10;;;9.98;;
17794;SDS011;9021;50.882;4.326;2023-01-28T05:12:42;11.48;;;10.30;;
17794;SDS011;9021;50.882;4.326;2023-01-28T05:15:08;11.57;;;10.38;;
17794;SDS011;9021;50.882;4.326;2023-01-28T05:17:34;10.98;;;9.88;;
17794;SDS011;9021;50.882;4.326;2023-01-28T05:20:00;11.10;;;9.70;;
17794;SDS011;9021;50.882;4.326;2023-01-28T05:22:26;11.20;;;10.10;;
17794;SDS011;9021;50.882;4.326;2023-01-28T05:24:51;11.13;;;10.00;;
17794;SDS011;9021;50.882;4.326;2023-01-28T05:27:17;10.40;;;9.40;;
17794;SDS011;9021;50.882;4.326;2023-01-28T05:29:43;10.55;;;9.50;;
17794;SDS011;9021;50.882;4.326;2023-01-28T05:32:08;10.75;;;9.65;;
17794;SDS011;9021;50.882;4.326;2023-01-28T05:34:34;11.75;;;9.32;;
17794;SDS011;9021;50.882;4.326;2023-01-28T05:37:00;10.38;;;9.20;;
17794;SDS011;9021;50.882;4.326;2023-01-28T05:39:25;9.73;;;8.82;;
17794;SDS011;9021;50.882;4.326;2023-01-28T05:41:51;9.90;;;8.90;;
17794;SDS011;9021;50.882;4.326;2023-01-28T05:44:16;9.95;;;8.95;;
17794;SDS011;9021;50.882;4.326;2023-01-28T05:46:42;9.98;;;8.98;;
17794;SDS011;9021;50.882;4.326;2023-01-28T05:49:10;10.85;;;8.85;;
17794;SDS011;9021;50.882;4.326;2023-01-28T05:51:38;10.60;;;9.20;;
17794;SDS011;9021;50.882;4.326;2023-01-28T05:54:04;10.38;;;9.38;;
17794;SDS011;9021;50.882;4.326;2023-01-28T05:56:31;9.27;;;8.35;;
17794;SDS011;9021;50.882;4.326;2023-01-28T05:58:57;9.90;;;8.70;;
17794;SDS011;9021;50.882;4.326;2023-01-28T06:01:23;10.05;;;9.05;;
17794;SDS011;9021;50.882;4.326;2023-01-28T06:03:49;9.88;;;8.57;;
17794;SDS011;9021;50.882;4.326;2023-01-28T06:06:14;10.32;;;9.32;;
17794;SDS011;9021;50.882;4.326;2023-01-28T06:08:40;12.13;;;8.95;;
17794;SDS011;9021;50.882;4.326;2023-01-28T06:11:06;10.40;;;9.30;;
17794;SDS011;9021;50.882;4.326;2023-01-28T06:13:31;9.15;;;8.27;;
17794;SDS011;9021;50.882;4.326;2023-01-28T06:15:57;9.55;;;8.65;;
17794;SDS011;9021;50.882;4.326;2023-01-28T06:18:23;8.40;;;7.60;;
17794;SDS011;9021;50.882;4.326;2023-01-28T06:20:49;8.82;;;7.97;;
17794;SDS011;9021;50.882;4.326;2023-01-28T06:25:40;9.45;;;8.50;;
17794;SDS011;9021;50.882;4.326;2023-01-28T06:28:06;9.77;;;8.80;;
17794;SDS011;9021;50.882;4.326;2023-01-28T06:30:31;8.55;;;7.75;;
17794;SDS011;9021;50.882;4.326;2023-01-28T06:32:57;9.30;;;8.40;;
17794;SDS011;9021;50.882;4.326;2023-01-28T06:35:23;8.82;;;7.97;;
17794;SDS011;9021;50.882;4.326;2023-01-28T06:37:49;8.88;;;8.00;;
17794;SDS011;9021;50.882;4.326;2023-01-28T06:40:16;8.68;;;7.85;;
17794;SDS011;9021;50.882;4.326;2023-01-28T06:42:42;14.57;;;8.07;;
17794;SDS011;9021;50.882;4.326;2023-01-28T06:45:07;8.95;;;8.10;;
17794;SDS011;9021;50.882;4.326;2023-01-28T06:47:33;10.30;;;8.75;;
17794;SDS011;9021;50.882;4.326;2023-01-28T06:49:59;9.70;;;8.80;;
17794;SDS011;9021;50.882;4.326;2023-01-28T06:52:25;9.60;;;8.52;;
17794;SDS011;9021;50.882;4.326;2023-01-28T06:54:50;9.40;;;8.50;;
17794;SDS011;9021;50.882;4.326;2023-01-28T06:57:16;12.65;;;9.63;;
17794;SDS011;9021;50.882;4.326;2023-01-28T06:59:41;10.15;;;9.15;;
17794;SDS011;9021;50.882;4.326;2023-01-28T07:02:08;10.40;;;9.23;;
17794;SDS011;9021;50.882;4.326;2023-01-28T07:04:35;10.25;;;8.63;;
17794;SDS011;9021;50.882;4.326;2023-01-28T07:07:01;10.68;;;9.57;;
17794;SDS011;9021;50.882;4.326;2023-01-28T07:09:27;11.43;;;9.27;;
17794;SDS011;9021;50.882;4.326;2023-01-28T07:11:52;9.48;;;8.45;;
17794;SDS011;9021;50.882;4.326;2023-01-28T07:14:18;10.13;;;8.93;;
17794;SDS011;9021;50.882;4.326;2023-01-28T07:16:44;12.90;;;11.45;;
17794;SDS011;9021;50.882;4.326;2023-01-28T07:19:09;16.95;;;11.80;;
17794;SDS011;9021;50.882;4.326;2023-01-28T07:21:35;10.45;;;9.35;;
17794;SDS011;9021;50.882;4.326;2023-01-28T07:24:01;11.02;;;9.90;;
17794;SDS011;9021;50.882;4.326;2023-01-28T07:26:29;10.52;;;9.30;;
17794;SDS011;9021;50.882;4.326;2023-01-28T07:28:55;10.23;;;9.23;;
17794;SDS011;9021;50.882;4.326;2023-01-28T07:31:20;10.38;;;9.27;;
17794;SDS011;9021;50.882;4.326;2023-01-28T07:33:46;10.55;;;9.48;;
17794;SDS011;9021;50.882;4.326;2023-01-28T07:36:12;10.55;;;9.45;;
17794;SDS011;9021;50.882;4.326;2023-01-28T07:38:37;12.23;;;9.55;;
17794;SDS011;9021;50.882;4.326;2023-01-28T07:41:03;10.85;;;9.75;;
17794;SDS011;9021;50.882;4.326;2023-01-28T07:43:29;11.80;;;10.60;;
17794;SDS011;9021;50.882;4.326;2023-01-28T07:45:54;10.88;;;9.77;;
17794;SDS011;9021;50.882;4.326;2023-01-28T07:48:20;11.02;;;9.93;;
17794;SDS011;9021;50.882;4.326;2023-01-28T07:50:45;17.25;;;10.20;;
17794;SDS011;9021;50.882;4.326;2023-01-28T07:53:13;11.13;;;9.60;;
17794;SDS011;9021;50.882;4.326;2023-01-28T07:55:39;11.13;;;9.68;;
17794;SDS011;9021;50.882;4.326;2023-01-28T07:58:05;10.13;;;9.10;;
17794;SDS011;9021;50.882;4.326;2023-01-28T08:00:33;19.13;;;10.18;;
17794;SDS011;9021;50.882;4.326;2023-01-28T08:03:08;12.10;;;9.73;;
17794;SDS011;9021;50.882;4.326;2023-01-28T08:05:39;11.20;;;9.85;;
17794;SDS011;9021;50.882;4.326;2023-01-28T08:08:09;10.32;;;9.30;;
17794;SDS011;9021;50.882;4.326;2023-01-28T08:10:35;12.73;;;10.52;;
17794;SDS011;9021;50.882;4.326;2023-01-28T08:13:02;12.90;;;10.40;;
17794;SDS011;9021;50.882;4.326;2023-01-28T08:15:28;11.25;;;10.00;;
17794;SDS011;9021;50.882;4.326;2023-01-28T08:20:21;11.23;;;9.85;;
17794;SDS011;9021;50.882;4.326;2023-01-28T08:22:47;11.00;;;9.90;;
17794;SDS011;9021;50.882;4.326;2023-01-28T08:25:13;14.07;;;10.02;;
17794;SDS011;9021;50.882;4.326;2023-01-28T08:27:38;13.07;;;11.55;;
17794;SDS011;9021;50.882;4.326;2023-01-28T08:30:04;13.18;;;11.77;;
17794;SDS011;9021;50.882;4.326;2023-01-28T08:34:56;12.27;;;10.98;;
17794;SDS011;9021;50.882;4.326;2023-01-28T08:37:22;12.85;;;11.40;;
17794;SDS011;9021;50.882;4.326;2023-01-28T08:39:47;14.05;;;12.25;;
17794;SDS011;9021;50.882;4.326;2023-01-28T08:42:14;12.95;;;11.65;;
17794;SDS011;9021;50.882;4.326;2023-01-28T08:44:39;13.02;;;11.65;;
17794;SDS011;9021;50.882;4.326;2023-01-28T08:47:05;14.70;;;11.38;;
17794;SDS011;9021;50.882;4.326;2023-01-28T08:49:30;14.25;;;11.90;;
17794;SDS011;9021;50.882;4.326;2023-01-28T08:51:56;19.10;;;14.32;;
17794;SDS011;9021;50.882;4.326;2023-01-28T08:54:22;17.77;;;12.60;;
17794;SDS011;9021;50.882;4.326;2023-01-28T08:56:47;13.93;;;12.50;;
17794;SDS011;9021;50.882;4.326;2023-01-28T08:59:13;13.82;;;12.38;;
17794;SDS011;9021;50.882;4.326;2023-01-28T09:04:05;14.77;;;13.02;;
17794;SDS011;9021;50.882;4.326;2023-01-28T09:06:31;14.93;;;13.00;;
17794;SDS011;9021;50.882;4.326;2023-01-28T09:08:57;17.80;;;14.68;;
17794;SDS011;9021;50.882;4.326;2023-01-28T09:11:26;16.05;;;13.88;;
17794;SDS011;9021;50.882;4.326;2023-01-28T09:13:53;15.18;;;13.48;;
17794;SDS011;9021;50.882;4.326;2023-01-28T09:16:18;18.40;;;13.73;;
17794;SDS011;9021;50.882;4.326;2023-01-28T09:18:44;15.15;;;13.48;;
17794;SDS011;9021;50.882;4.326;2023-01-28T09:21:12;14.93;;;12.70;;
17794;SDS011;9021;50.882;4.326;2023-01-28T09:23:38;16.58;;;14.18;;
17794;SDS011;9021;50.882;4.326;2023-01-28T09:26:04;15.77;;;14.07;;
17794;SDS011;9021;50.882;4.326;2023-01-28T09:28:30;15.13;;;13.52;;
17794;SDS011;9021;50.882;4.326;2023-01-28T09:31:06;17.92;;;15.40;;
17794;SDS011;9021;50.882;4.326;2023-01-28T09:36:00;16.65;;;14.43;;
17794;SDS011;9021;50.882;4.326;2023-01-28T09:38:28;18.55;;;16.08;;
17794;SDS011;9021;50.882;4.326;2023-01-28T09:40:54;17.58;;;14.80;;
17794;SDS011;9021;50.882;4.326;2023-01-28T09:43:33;17.35;;;14.85;;
17794;SDS011;9021;50.882;4.326;2023-01-28T09:48:45;17.42;;;15.23;;
17794;SDS011;9021;50.882;4.326;2023-01-28T09:51:21;17.27;;;15.40;;
17794;SDS011;9021;50.882;4.326;2023-01-28T09:53:51;18.20;;;15.90;;
17794;SDS011;9021;50.882;4.326;2023-01-28T09:56:24;19.33;;;16.10;;
17794;SDS011;9021;50.882;4.326;2023-01-28T09:58:52;16.67;;;14.25;;
17794;SDS011;9021;50.882;4.326;2023-01-28T10:04:17;20.58;;;16.23;;
17794;SDS011;9021;50.882;4.326;2023-01-28T10:12:01;17.55;;;15.43;;
17794;SDS011;9021;50.882;4.326;2023-01-28T10:20:00;16.90;;;15.00;;
17794;SDS011;9021;50.882;4.326;2023-01-28T10:25:30;16.42;;;13.48;;
17794;SDS011;9021;50.882;4.326;2023-01-28T10:27:59;14.60;;;13.00;;
17794;SDS011;9021;50.882;4.326;2023-01-28T10:30:27;16.92;;;13.07;;
17794;SDS011;9021;50.882;4.326;2023-01-28T10:33:03;21.30;;;13.82;;
17794;SDS011;9021;50.882;4.326;2023-01-28T10:35:30;25.73;;;21.77;;
17794;SDS011;9021;50.882;4.326;2023-01-28T10:38:02;13.98;;;12.48;;
17794;SDS011;9021;50.882;4.326;2023-01-28T10:40:32;14.77;;;13.10;;
17794;SDS011;9021;50.882;4.326;2023-01-28T10:42:57;21.77;;;13.27;;
17794;SDS011;9021;50.882;4.326;2023-01-28T10:45:24;14.65;;;13.00;;
17794;SDS011;9021;50.882;4.326;2023-01-28T10:50:53;14.13;;;12.63;;
17794;SDS011;9021;50.882;4.326;2023-01-28T10:53:47;15.77;;;14.18;;
17794;SDS011;9021;50.882;4.326;2023-01-28T10:56:15;15.98;;;13.65;;
17794;SDS011;9021;50.882;4.326;2023-01-28T11:01:24;15.27;;;13.10;;
17794;SDS011;9021;50.882;4.326;2023-01-28T11:03:57;15.40;;;12.93;;
17794;SDS011;9021;50.882;4.326;2023-01-28T11:06:24;13.90;;;12.38;;
17794;SDS011;9021;50.882;4.326;2023-01-28T11:08:51;16.02;;;12.98;;
17794;SDS011;9021;50.882;4.326;2023-01-28T11:11:24;16.88;;;12.32;;
17794;SDS011;9021;50.882;4.326;2023-01-28T11:13:51;14.60;;;12.77;;
17794;SDS011;9021;50.882;4.326;2023-01-28T11:16:18;14.35;;;12.43;;
17794;SDS011;9021;50.882;4.326;2023-01-28T11:18:52;15.40;;;13.20;;
17794;SDS011;9021;50.882;4.326;2023-01-28T11:21:27;14.55;;;11.98;;
17794;SDS011;9021;50.882;4.326;2023-01-28T11:23:55;14.00;;;12.50;;
17794;SDS011;9021;50.882;4.326;2023-01-28T11:26:24;15.30;;;12.25;;
17794;SDS011;9021;50.882;4.326;2023-01-28T11:29:02;13.48;;;12.07;;
17794;SDS011;9021;50.882;4.326;2023-01-28T11:34:01;12.82;;;11.40;;
17794;SDS011;9021;50.882;4.326;2023-01-28T11:36:30;14.13;;;12.63;;
17794;SDS011;9021;50.882;4.326;2023-01-28T11:38:58;14.43;;;12.32;;
17794;SDS011;9021;50.882;4.326;2023-01-28T11:41:41;14.13;;;11.77;;
17794;SDS011;9021;50.882;4.326;2023-01-28T11:44:15;17.38;;;12.35;;
17794;SDS011;9021;50.882;4.326;2023-01-28T11:52:17;14.65;;;11.55;;
17794;SDS011;9021;50.882;4.326;2023-01-28T12:04:01;16.02;;;11.57;;
17794;SDS011;9021;50.882;4.326;2023-01-28T12:06:55;17.08;;;12.05;;
17794;SDS011;9021;50.882;4.326;2023-01-28T12:09:48;13.73;;;11.73;;
17794;SDS011;9021;50.882;4.326;2023-01-28T12:12:33;19.08;;;11.70;;
17794;SDS011;9021;50.882;4.326;2023-01-28T12:20:45;13.35;;;11.25;;
17794;SDS011;9021;50.882;4.326;2023-01-28T12:26:10;15.95;;;11.55;;
17794;SDS011;9021;50.882;4.326;2023-01-28T12:40:20;13.90;;;12.40;;
17794;SDS011;9021;50.882;4.326;2023-01-28T12:42:55;13.25;;;11.13;;
17794;SDS011;9021;50.882;4.326;2023-01-28T12:45:47;19.23;;;11.73;;
17794;SDS011;9021;50.882;4.326;2023-01-28T12:48:48;12.27;;;10.98;;
17794;SDS011;9021;50.882;4.326;2023-01-28T12:51:20;13.45;;;10.95;;
17794;SDS011;9021;50.882;4.326;2023-01-28T12:53:52;11.57;;;10.48;;
17794;SDS011;9021;50.882;4.326;2023-01-28T12:56:32;11.77;;;10.57;;
17794;SDS011;9021;50.882;4.326;2023-01-28T13:02:16;12.88;;;10.10;;
17794;SDS011;9021;50.882;4.326;2023-01-28T13:04:53;11.95;;;10.85;;
17794;SDS011;9021;50.882;4.326;2023-01-28T13:10:24;13.02;;;11.45;;
17794;SDS011;9021;50.882;4.326;2023-01-28T13:12:59;14.57;;;10.40;;
17794;SDS011;9021;50.882;4.326;2023-01-28T13:15:25;9.75;;;8.85;;
17794;SDS011;9021;50.882;4.326;2023-01-28T13:18:01;10.45;;;9.07;;
17794;SDS011;9021;50.882;4.326;2023-01-28T13:20:36;10.38;;;9.27;;
17794;SDS011;9021;50.882;4.326;2023-01-28T13:23:04;10.32;;;9.32;;
17794;SDS011;9021;50.882;4.326;2023-01-28T13:25:49;10.90;;;9.82;;
17794;SDS011;9021;50.882;4.326;2023-01-28T13:28:24;11.30;;;9.90;;
17794;SDS011;9021;50.882;4.326;2023-01-28T13:30:50;10.88;;;9.15;;
17794;SDS011;9021;50.882;4.326;2023-01-28T13:33:25;12.52;;;11.23;;
17794;SDS011;9021;50.882;4.326;2023-01-28T13:35:54;11.93;;;10.70;;
17794;SDS011;9021;50.882;4.326;2023-01-28T13:43:39;12.10;;;10.80;;
17794;SDS011;9021;50.882;4.326;2023-01-28T13:46:07;11.80;;;10.60;;
17794;SDS011;9021;50.882;4.326;2023-01-28T13:48:47;13.68;;;11.85;;
17794;SDS011;9021;50.882;4.326;2023-01-28T13:54:06;12.63;;;11.32;;
17794;SDS011;9021;50.882;4.326;2023-01-28T14:02:30;13.50;;;10.52;;
17794;SDS011;9021;50.882;4.326;2023-01-28T14:05:29;12.75;;;11.27;;
17794;SDS011;9021;50.882;4.326;2023-01-28T14:08:22;15.77;;;11.95;;
17794;SDS011;9021;50.882;4.326;2023-01-28T14:19:33;11.70;;;10.50;;
17794;SDS011;9021;50.882;4.326;2023-01-28T14:22:07;12.00;;;10.70;;
17794;SDS011;9021;50.882;4.326;2023-01-28T14:24:37;14.13;;;10.43;;
17794;SDS011;9021;50.882;4.326;2023-01-28T14:32:21;12.43;;;11.05;;
17794;SDS011;9021;50.882;4.326;2023-01-28T14:34:51;12.60;;;10.82;;
17794;SDS011;9021;50.882;4.326;2023-01-28T14:37:18;12.90;;;10.88;;
17794;SDS011;9021;50.882;4.326;2023-01-28T14:39:47;15.02;;;11.43;;
17794;SDS011;9021;50.882;4.326;2023-01-28T14:42:36;12.18;;;10.60;;
17794;SDS011;9021;50.882;4.326;2023-01-28T14:47:44;12.35;;;11.02;;
17794;SDS011;9021;50.882;4.326;2023-01-28T14:55:55;13.32;;;11.40;;
17794;SDS011;9021;50.882;4.326;2023-01-28T14:58:38;12.63;;;10.75;;
17794;SDS011;9021;50.882;4.326;2023-01-28T15:01:18;16.48;;;12.43;;
17794;SDS011;9021;50.882;4.326;2023-01-28T15:03:53;12.95;;;11.40;;
17794;SDS011;9021;50.882;4.326;2023-01-28T15:08:50;16.30;;;11.98;;
17794;SDS011;9021;50.882;4.326;2023-01-28T15:11:21;17.13;;;12.30;;
17794;SDS011;9021;50.882;4.326;2023-01-28T15:13:49;14.00;;;12.32;;
17794;SDS011;9021;50.882;4.326;2023-01-28T15:16:20;16.10;;;13.15;;
17794;SDS011;9021;50.882;4.326;2023-01-28T15:18:53;14.93;;;13.32;;
17794;SDS011;9021;50.882;4.326;2023-01-28T15:21:20;13.32;;;11.90;;
17794;SDS011;9021;50.882;4.326;2023-01-28T15:23:51;14.52;;;12.95;;
17794;SDS011;9021;50.882;4.326;2023-01-28T15:26:31;17.95;;;13.05;;
17794;SDS011;9021;50.882;4.326;2023-01-28T15:28:58;14.60;;;13.07;;
17794;SDS011;9021;50.882;4.326;2023-01-28T15:31:29;13.43;;;12.02;;
17794;SDS011;9021;50.882;4.326;2023-01-28T15:34:13;14.15;;;12.63;;
17794;SDS011;9021;50.882;4.326;2023-01-28T15:36:40;14.25;;;12.75;;
17794;SDS011;9021;50.882;4.326;2023-01-28T15:41:39;14.55;;;12.05;;
17794;SDS011;9021;50.882;4.326;2023-01-28T15:44:15;17.67;;;13.48;;
17794;SDS011;9021;50.882;4.326;2023-01-28T15:46:43;15.80;;;13.25;;
17794;SDS011;9021;50.882;4.326;2023-01-28T15:49:12;17.98;;;13.38;;
17794;SDS011;9021;50.882;4.326;2023-01-28T15:51:39;16.42;;;13.65;;
17794;SDS011;9021;50.882;4.326;2023-01-28T15:54:06;16.67;;;13.98;;
17794;SDS011;9021;50.882;4.326;2023-01-28T15:56:33;16.85;;;13.65;;
17794;SDS011;9021;50.882;4.326;2023-01-28T15:59:33;16.13;;;13.43;;
17794;SDS011;9021;50.882;4.326;2023-01-28T16:04:38;15.00;;;13.40;;
17794;SDS011;9021;50.882;4.326;2023-01-28T16:07:04;15.63;;;13.88;;
17794;SDS011;9021;50.882;4.326;2023-01-28T16:09:30;14.48;;;12.93;;
17794;SDS011;9021;50.882;4.326;2023-01-28T16:12:04;16.50;;;13.43;;
17794;SDS011;9021;50.882;4.326;2023-01-28T16:14:40;21.52;;;13.20;;
17794;SDS011;9021;50.882;4.326;2023-01-28T16:17:06;15.85;;;12.90;;
17794;SDS011;9021;50.882;4.326;2023-01-28T16:22:03;13.70;;;11.55;;
17794;SDS011;9021;50.882;4.326;2023-01-28T16:24:31;16.15;;;12.25;;
17794;SDS011;9021;50.882;4.326;2023-01-28T16:27:03;17.52;;;12.65;;
17794;SDS011;9021;50.882;4.326;2023-01-28T16:29:31;14.73;;;12.07;;
17794;SDS011;9021;50.882;4.326;2023-01-28T16:34:27;17.73;;;11.70;;
17794;SDS011;9021;50.882;4.326;2023-01-28T16:36:55;13.73;;;12.10;;
17794;SDS011;9021;50.882;4.326;2023-01-28T16:39:24;15.88;;;11.48;;
17794;SDS011;9021;50.882;4.326;2023-01-28T16:41:50;15.73;;;11.93;;
17794;SDS011;9021;50.882;4.326;2023-01-28T16:44:15;14.85;;;11.98;;
17794;SDS011;9021;50.882;4.326;2023-01-28T16:46:42;16.27;;;11.55;;
17794;SDS011;9021;50.882;4.326;2023-01-28T16:49:08;14.93;;;12.05;;
17794;SDS011;9021;50.882;4.326;2023-01-28T16:51:35;14.65;;;10.93;;
17794;SDS011;9021;50.882;4.326;2023-01-28T16:54:02;15.45;;;11.85;;
17794;SDS011;9021;50.882;4.326;2023-01-28T16:56:28;13.10;;;10.98;;
17794;SDS011;9021;50.882;4.326;2023-01-28T16:58:54;12.40;;;11.02;;
17794;SDS011;9021;50.882;4.326;2023-01-28T17:01:20;19.98;;;11.23;;
17794;SDS011;9021;50.882;4.326;2023-01-28T17:03:46;16.50;;;11.80;;
17794;SDS011;9021;50.882;4.326;2023-01-28T17:06:14;14.73;;;12.02;;
17794;SDS011;9021;50.882;4.326;2023-01-28T17:08:41;16.23;;;11.23;;
17794;SDS011;9021;50.882;4.326;2023-01-28T17:11:07;13.93;;;11.57;;
17794;SDS011;9021;50.882;4.326;2023-01-28T17:13:33;12.73;;;10.98;;
17794;SDS011;9021;50.882;4.326;2023-01-28T17:16:02;24.27;;;10.73;;
17794;SDS011;9021;50.882;4.326;2023-01-28T17:18:28;17.30;;;11.55;;
17794;SDS011;9021;50.882;4.326;2023-01-28T17:20:57;16.83;;;11.77;;
17794;SDS011;9021;50.882;4.326;2023-01-28T17:23:29;13.98;;;11.93;;
17794;SDS011;9021;50.882;4.326;2023-01-28T17:25:55;18.98;;;12.27;;
17794;SDS011;9021;50.882;4.326;2023-01-28T17:28:20;14.38;;;11.98;;
17794;SDS011;9021;50.882;4.326;2023-01-28T17:30:46;15.18;;;12.23;;
17794;SDS011;9021;50.882;4.326;2023-01-28T17:33:12;13.95;;;11.18;;
17794;SDS011;9021;50.882;4.326;2023-01-28T17:35:37;14.23;;;11.80;;
17794;SDS011;9021;50.882;4.326;2023-01-28T17:38:03;13.45;;;11.35;;